Aguilar, Colorado
Current Conditions -  °F | °C
As of 1:54 PM on Wednesday 26 Nov 2014 (Local Time) from KTAD Reporting Station
Clear Clear  
Wind Chill: 41°   Ceiling: Unl
Heat Index: 45°   Visibility: 10mi
Dew Point: 31°   Wind: 8mph
Humidity: 58%   Direction: 140°SE
Pressure: 30.17"   Gusts: NA
Location:  37.4°N, 104.65°W
Report Text: KTAD 262054Z AUTO 14007KT 10SM CLR 07/M01 A3017 RMK AO2 SLP211 T00721006 56010
Loading
Personal Weather Stations






























Interactive Weather Map New forecast layout! Learn more

10-Day Weather Forecast

Advertisements
Track Severe Weather on mobile